Time;durP1;ratioP1;P1;durP2;ratioP2;P2;SDS_P1;SDS_P2;PMS_P1;PMS_P2;Temp;Humidity;BMP_temperature;BMP_pressure;BME280_temperature;BME280_humidity;BME280_pressure;Samples;Min_cycle;Max_cycle;Signal;HPM_P1;HPM_P2
2022/10/13 00:01:20;;;;;;;24.33;15.50;;;;;;;;;;5033823;28;20595;-70
2022/10/13 00:03:47;;;;;;;28.10;16.00;;;;;;;;;;5016139;28;20230;-68
2022/10/13 00:06:14;;;;;;;22.70;15.40;;;;;;;;;;5016083;28;20206;-68
2022/10/13 00:08:41;;;;;;;24.53;15.57;;;;;;;;;;5034151;28;20613;-68
2022/10/13 00:11:10;;;;;;;32.50;16.27;;;;;;;;;;5016223;28;20554;-69
2022/10/13 00:13:36;;;;;;;23.00;15.33;;;;;;;;;;5016025;28;20214;-68
2022/10/13 00:16:03;;;;;;;21.57;15.40;;;;;;;;;;5033700;28;20210;-68
2022/10/13 00:18:29;;;;;;;24.13;15.70;;;;;;;;;;5033888;28;20309;-68
2022/10/13 00:20:55;;;;;;;30.63;15.43;;;;;;;;;;5033639;28;20225;-68
2022/10/13 00:23:21;;;;;;;23.77;14.67;;;;;;;;;;5033831;28;20202;-68
2022/10/13 00:25:48;;;;;;;26.03;15.70;;;;;;;;;;5033512;28;20213;-69
2022/10/13 00:28:14;;;;;;;31.73;17.67;;;;;;;;;;5033553;28;20175;-67
2022/10/13 00:30:40;;;;;;;28.97;18.13;;;;;;;;;;5033727;28;20179;-69
2022/10/13 00:33:06;;;;;;;36.10;20.33;;;;;;;;;;5033427;28;20191;-69
2022/10/13 00:35:33;;;;;;;37.00;22.57;;;;;;;;;;5015644;28;20205;-69
2022/10/13 00:37:59;;;;;;;37.20;23.63;;;;;;;;;;5033386;28;20183;-68
2022/10/13 00:40:25;;;;;;;35.97;23.33;;;;;;;;;;5033772;28;20179;-68
2022/10/13 00:42:51;;;;;;;35.50;24.10;;;;;;;;;;5033188;28;20203;-68
2022/10/13 00:45:19;;;;;;;37.80;24.53;;;;;;;;;;5033333;28;20237;-68
2022/10/13 00:47:47;;;;;;;38.17;24.93;;;;;;;;;;5033584;28;20179;-68
2022/10/13 00:50:22;;;;;;;35.80;24.50;;;;;;;;;;5015511;28;20175;-68
2022/10/13 00:52:49;;;;;;;34.53;24.50;;;;;;;;;;5033143;28;20174;-67
2022/10/13 00:55:17;;;;;;;33.63;24.43;;;;;;;;;;5015385;28;20686;-69
2022/10/13 00:57:44;;;;;;;34.93;23.40;;;;;;;;;;5037363;28;20214;-68
2022/10/13 01:00:10;;;;;;;34.03;21.43;;;;;;;;;;5037303;28;20175;-69
2022/10/13 01:02:37;;;;;;;37.30;21.73;;;;;;;;;;5019208;28;20242;-68
2022/10/13 01:05:04;;;;;;;29.80;19.13;;;;;;;;;;5037035;28;20206;-69
2022/10/13 01:07:31;;;;;;;30.37;18.97;;;;;;;;;;5037128;28;20233;-68
2022/10/13 01:09:59;;;;;;;28.33;18.67;;;;;;;;;;5037093;28;20171;-68
2022/10/13 01:12:42;;;;;;;29.87;18.27;;;;;;;;;;5037157;28;20548;-68
2022/10/13 01:15:13;;;;;;;26.57;16.93;;;;;;;;;;5037097;28;20199;-68
2022/10/13 01:17:52;;;;;;;29.77;17.77;;;;;;;;;;5036948;28;20183;-68
2022/10/13 01:20:36;;;;;;;28.50;17.97;;;;;;;;;;5037021;28;20163;-68
2022/10/13 01:23:21;;;;;;;23.70;16.67;;;;;;;;;;5018769;28;20202;-68
2022/10/13 01:26:05;;;;;;;27.47;17.00;;;;;;;;;;5036431;28;20238;-68
2022/10/13 01:28:37;;;;;;;37.70;17.87;;;;;;;;;;5036605;28;20181;-68
2022/10/13 01:31:06;;;;;;;24.27;17.30;;;;;;;;;;5036661;28;20179;-68
2022/10/13 01:33:42;;;;;;;23.87;16.00;;;;;;;;;;5036429;28;20644;-68
2022/10/13 01:36:30;;;;;;;24.03;16.37;;;;;;;;;;5036381;28;20199;-68
2022/10/13 01:39:00;;;;;;;31.50;16.87;;;;;;;;;;5036450;28;20172;-68
2022/10/13 01:41:35;;;;;;;35.57;18.70;;;;;;;;;;5037039;28;20631;-68
2022/10/13 01:44:04;;;;;;;30.40;18.47;;;;;;;;;;5018444;28;20563;-68
2022/10/13 01:46:33;;;;;;;33.00;17.20;;;;;;;;;;5018601;28;20237;-69
2022/10/13 01:49:01;;;;;;;29.00;17.13;;;;;;;;;;5036574;28;20180;-68
2022/10/13 01:51:28;;;;;;;32.03;17.90;;;;;;;;;;5018393;28;20186;-68
2022/10/13 01:53:54;;;;;;;27.87;17.77;;;;;;;;;;5018415;28;20309;-68
2022/10/13 01:56:20;;;;;;;29.00;17.47;;;;;;;;;;5036382;28;20255;-68
2022/10/13 01:58:46;;;;;;;27.73;17.50;;;;;;;;;;5036498;28;20552;-68
2022/10/13 02:01:24;;;;;;;27.70;17.63;;;;;;;;;;5018405;28;20261;-68
2022/10/13 02:03:55;;;;;;;32.37;18.60;;;;;;;;;;5018253;28;20670;-68
2022/10/13 02:06:32;;;;;;;28.53;17.90;;;;;;;;;;5036108;28;20203;-68
2022/10/13 02:09:01;;;;;;;29.87;16.87;;;;;;;;;;5034792;28;20163;-68
2022/10/13 02:11:28;;;;;;;30.43;16.83;;;;;;;;;;5018054;28;20187;-67
2022/10/13 02:14:14;;;;;;;24.10;16.90;;;;;;;;;;5035914;28;20190;-69
2022/10/13 02:16:41;;;;;;;26.20;16.17;;;;;;;;;;5035567;28;20199;-69
2022/10/13 02:19:08;;;;;;;24.43;15.30;;;;;;;;;;5018078;28;20241;-68
2022/10/13 02:21:35;;;;;;;24.87;16.13;;;;;;;;;;5018050;28;20266;-68
2022/10/13 02:24:02;;;;;;;22.33;16.17;;;;;;;;;;5017829;28;20211;-68
2022/10/13 02:26:29;;;;;;;27.53;16.10;;;;;;;;;;5035514;28;20213;-68
2022/10/13 02:28:55;;;;;;;24.60;16.37;;;;;;;;;;5035586;28;20179;-68
2022/10/13 02:31:21;;;;;;;23.60;16.07;;;;;;;;;;5017859;28;20731;-68
2022/10/13 02:33:47;;;;;;;26.47;16.73;;;;;;;;;;5035431;28;20232;-68
2022/10/13 02:36:13;;;;;;;22.63;15.13;;;;;;;;;;5017622;28;20230;-69
2022/10/13 02:38:39;;;;;;;22.47;15.27;;;;;;;;;;5035368;28;20187;-67
2022/10/13 02:41:05;;;;;;;25.33;15.27;;;;;;;;;;5017680;28;20183;-68
2022/10/13 02:43:32;;;;;;;23.20;16.10;;;;;;;;;;5017505;28;20306;-68
2022/10/13 02:45:58;;;;;;;22.10;15.17;;;;;;;;;;5035223;28;20219;-68
2022/10/13 02:48:24;;;;;;;26.97;14.83;;;;;;;;;;5017508;28;20270;-68
2022/10/13 02:50:50;;;;;;;27.50;15.43;;;;;;;;;;5017380;28;20554;-68
2022/10/13 02:53:16;;;;;;;20.60;15.20;;;;;;;;;;5035608;28;20175;-68
2022/10/13 02:55:42;;;;;;;24.40;14.60;;;;;;;;;;5017342;28;20264;-68
2022/10/13 02:58:08;;;;;;;24.80;14.50;;;;;;;;;;5017334;28;20186;-68
2022/10/13 03:00:34;;;;;;;25.47;14.20;;;;;;;;;;5035113;28;20254;-68
2022/10/13 03:03:00;;;;;;;21.73;15.13;;;;;;;;;;5034820;28;20284;-68
2022/10/13 03:05:26;;;;;;;24.50;14.60;;;;;;;;;;5017062;28;20202;-68
2022/10/13 03:07:52;;;;;;;24.20;14.93;;;;;;;;;;5017070;28;20258;-68
2022/10/13 03:10:18;;;;;;;26.57;15.73;;;;;;;;;;5034894;28;20274;-68
2022/10/13 03:12:44;;;;;;;24.87;14.53;;;;;;;;;;5016881;28;20241;-68
2022/10/13 03:15:10;;;;;;;26.50;14.67;;;;;;;;;;5034542;28;20680;-68
2022/10/13 03:17:36;;;;;;;23.60;14.00;;;;;;;;;;5034578;28;20667;-68
2022/10/13 03:20:02;;;;;;;24.47;14.87;;;;;;;;;;5016506;28;20277;-70
2022/10/13 03:22:30;;;;;;;22.80;14.60;;;;;;;;;;5036747;28;20210;-70
2022/10/13 03:24:56;;;;;;;26.20;15.07;;;;;;;;;;5037515;28;20215;-69
2022/10/13 03:27:22;;;;;;;25.70;14.53;;;;;;;;;;5037267;28;20179;-70
2022/10/13 03:29:48;;;;;;;21.70;15.20;;;;;;;;;;5018941;28;20179;-70
2022/10/13 03:32:14;;;;;;;20.50;14.63;;;;;;;;;;5016979;28;20183;-70
2022/10/13 03:34:40;;;;;;;21.43;14.17;;;;;;;;;;5016621;28;20183;-69
2022/10/13 03:37:05;;;;;;;21.33;14.63;;;;;;;;;;5034382;28;20179;-70
2022/10/13 03:39:31;;;;;;;23.83;15.17;;;;;;;;;;5034697;28;20190;-69
2022/10/13 03:41:57;;;;;;;26.90;15.60;;;;;;;;;;5016895;28;20175;-70
2022/10/13 03:44:23;;;;;;;21.70;14.33;;;;;;;;;;5034025;28;20207;-70
2022/10/13 03:46:49;;;;;;;23.00;15.73;;;;;;;;;;5033861;28;20241;-70
2022/10/13 03:49:16;;;;;;;24.60;14.77;;;;;;;;;;5034063;28;20236;-70
2022/10/13 03:51:42;;;;;;;27.23;15.03;;;;;;;;;;5016253;28;20179;-66
2022/10/13 03:54:11;;;;;;;25.67;15.30;;;;;;;;;;5034825;28;20201;-67
2022/10/13 03:56:37;;;;;;;19.23;14.30;;;;;;;;;;5033981;28;20191;-69
2022/10/13 03:59:03;;;;;;;23.97;15.17;;;;;;;;;;5016071;28;20190;-70
2022/10/13 04:01:30;;;;;;;23.80;15.43;;;;;;;;;;5016177;28;20617;-68
2022/10/13 04:03:57;;;;;;;27.93;15.37;;;;;;;;;;5034264;28;20206;-67
2022/10/13 04:06:24;;;;;;;26.70;15.53;;;;;;;;;;5015995;28;20206;-70
2022/10/13 04:08:50;;;;;;;23.67;15.40;;;;;;;;;;5033945;28;20694;-69
2022/10/13 04:11:16;;;;;;;27.83;16.60;;;;;;;;;;5033740;28;20176;-71
2022/10/13 04:13:43;;;;;;;26.57;15.53;;;;;;;;;;5016149;28;20209;-69
2022/10/13 04:16:12;;;;;;;22.90;15.40;;;;;;;;;;5033497;28;20199;-69
2022/10/13 04:18:38;;;;;;;21.43;14.57;;;;;;;;;;5033534;28;20186;-68
2022/10/13 04:21:09;;;;;;;29.37;15.40;;;;;;;;;;5034055;28;20269;-69
2022/10/13 04:23:34;;;;;;;27.77;14.73;;;;;;;;;;5015969;28;20206;-70
2022/10/13 04:26:00;;;;;;;22.50;14.47;;;;;;;;;;5033846;28;20265;-69
2022/10/13 04:28:26;;;;;;;21.37;14.77;;;;;;;;;;5033852;28;20182;-69
2022/10/13 04:30:52;;;;;;;20.67;14.63;;;;;;;;;;5032993;28;20188;-69
2022/10/13 04:33:18;;;;;;;23.93;15.30;;;;;;;;;;5033850;28;20182;-69
2022/10/13 04:35:44;;;;;;;25.00;14.97;;;;;;;;;;5033535;28;20207;-69
2022/10/13 04:38:10;;;;;;;18.50;14.50;;;;;;;;;;5033263;28;20187;-69
2022/10/13 04:40:36;;;;;;;22.53;14.57;;;;;;;;;;5033563;28;20182;-69
2022/10/13 04:43:03;;;;;;;24.43;15.10;;;;;;;;;;5033136;28;20225;-70
2022/10/13 04:45:29;;;;;;;31.13;15.63;;;;;;;;;;5033187;28;20199;-69
2022/10/13 04:47:55;;;;;;;24.93;16.37;;;;;;;;;;5033228;28;20560;-70
2022/10/13 04:50:21;;;;;;;24.63;15.03;;;;;;;;;;5015583;28;20677;-69
2022/10/13 04:52:47;;;;;;;29.43;15.73;;;;;;;;;;5033375;28;20585;-69
2022/10/13 04:55:13;;;;;;;25.43;15.90;;;;;;;;;;5015317;28;20207;-69
2022/10/13 04:57:39;;;;;;;28.00;16.20;;;;;;;;;;5033063;28;20537;-69
2022/10/13 05:00:08;;;;;;;29.00;15.53;;;;;;;;;;5033128;28;20707;-69
2022/10/13 05:02:35;;;;;;;22.60;14.87;;;;;;;;;;5032986;28;20213;-69
2022/10/13 05:05:01;;;;;;;28.07;16.13;;;;;;;;;;5033171;28;20663;-69
2022/10/13 05:07:27;;;;;;;32.57;15.97;;;;;;;;;;5015207;28;20228;-69
2022/10/13 05:09:53;;;;;;;33.60;16.30;;;;;;;;;;5015234;28;20187;-69
2022/10/13 05:12:19;;;;;;;25.87;15.67;;;;;;;;;;5058660;23;20236;-64
2022/10/13 05:14:45;;;;;;;29.83;15.87;;;;;;;;;;5053246;28;20213;-64
2022/10/13 05:17:11;;;;;;;24.77;16.10;;;;;;;;;;5052870;28;20186;-64
2022/10/13 05:19:36;;;;;;;21.73;15.43;;;;;;;;;;5052909;28;20182;-67
2022/10/13 05:22:02;;;;;;;30.30;16.80;;;;;;;;;;5034958;28;20343;-64
2022/10/13 05:24:35;;;;;;;23.53;15.83;;;;;;;;;;5052951;28;20677;-65
2022/10/13 05:27:05;;;;;;;25.20;15.30;;;;;;;;;;5035292;28;20178;-67
2022/10/13 05:29:31;;;;;;;26.93;16.50;;;;;;;;;;5034892;28;20269;-64
2022/10/13 05:31:57;;;;;;;26.20;16.50;;;;;;;;;;5034926;28;20230;-66
2022/10/13 05:34:23;;;;;;;23.73;15.03;;;;;;;;;;5035093;28;20221;-66
2022/10/13 05:36:49;;;;;;;27.33;14.93;;;;;;;;;;5034943;28;20186;-65
2022/10/13 05:39:15;;;;;;;26.30;15.40;;;;;;;;;;5052848;28;20182;-65
2022/10/13 05:41:41;;;;;;;20.20;14.00;;;;;;;;;;5053305;28;20252;-65
2022/10/13 05:44:07;;;;;;;19.93;14.90;;;;;;;;;;5056552;28;20198;-68
2022/10/13 05:46:33;;;;;;;23.37;15.57;;;;;;;;;;5056551;28;20702;-65
2022/10/13 05:48:59;;;;;;;30.27;15.60;;;;;;;;;;5056349;28;20181;-65
2022/10/13 05:51:27;;;;;;;23.83;15.40;;;;;;;;;;5056392;28;20558;-65
2022/10/13 05:54:03;;;;;;;25.50;15.60;;;;;;;;;;5038584;28;20549;-65
2022/10/13 05:56:32;;;;;;;33.17;17.07;;;;;;;;;;5056268;28;20248;-66
2022/10/13 05:59:04;;;;;;;28.93;15.50;;;;;;;;;;5038380;28;20204;-65
2022/10/13 06:01:32;;;;;;;28.03;16.37;;;;;;;;;;5056505;28;20205;-65
2022/10/13 06:03:59;;;;;;;23.23;16.20;;;;;;;;;;5056517;28;20198;-65
2022/10/13 06:06:25;;;;;;;25.43;15.77;;;;;;;;;;5056262;28;20797;-65
2022/10/13 06:08:51;;;;;;;20.70;15.33;;;;;;;;;;5056503;28;20170;-65
2022/10/13 06:11:17;;;;;;;26.77;14.60;;;;;;;;;;5056316;28;20198;-65
2022/10/13 06:13:43;;;;;;;25.93;15.47;;;;;;;;;;5038566;28;20269;-65
2022/10/13 06:16:09;;;;;;;21.93;15.00;;;;;;;;;;5038118;28;20178;-65
2022/10/13 06:18:35;;;;;;;23.50;14.10;;;;;;;;;;5038308;28;20856;-67
2022/10/13 06:21:01;;;;;;;22.67;15.23;;;;;;;;;;5038094;28;20646;-68
2022/10/13 06:23:27;;;;;;;25.80;14.57;;;;;;;;;;5037991;28;20297;-62
2022/10/13 06:25:53;;;;;;;24.13;14.37;;;;;;;;;;5055997;28;20673;-65
2022/10/13 06:28:20;;;;;;;22.20;14.30;;;;;;;;;;5055757;28;20181;-65
2022/10/13 06:30:52;;;;;;;23.23;14.40;;;;;;;;;;5055955;28;20178;-67
2022/10/13 06:33:18;;;;;;;24.57;15.00;;;;;;;;;;5037765;28;20214;-65
2022/10/13 06:35:44;;;;;;;25.10;15.33;;;;;;;;;;5055440;28;20189;-65
2022/10/13 06:38:10;;;;;;;24.60;14.33;;;;;;;;;;5055349;28;20266;-65
2022/10/13 06:40:36;;;;;;;26.63;15.67;;;;;;;;;;5037368;28;20264;-65
2022/10/13 06:43:02;;;;;;;21.30;14.70;;;;;;;;;;5055538;28;20669;-65
2022/10/13 06:45:28;;;;;;;22.53;15.40;;;;;;;;;;5037288;28;20175;-65
2022/10/13 06:47:54;;;;;;;24.97;14.73;;;;;;;;;;5055793;28;20253;-65
2022/10/13 06:50:20;;;;;;;26.57;15.13;;;;;;;;;;5037218;28;20174;-65
2022/10/13 06:52:46;;;;;;;25.77;16.00;;;;;;;;;;5055378;28;20213;-65
2022/10/13 06:55:12;;;;;;;25.33;17.33;;;;;;;;;;5054378;28;20174;-65
2022/10/13 06:57:38;;;;;;;21.07;14.63;;;;;;;;;;5054887;28;20182;-65
2022/10/13 07:00:05;;;;;;;26.20;16.33;;;;;;;;;;5055029;28;20174;-65
2022/10/13 07:02:31;;;;;;;25.97;15.73;;;;;;;;;;5036741;28;20209;-65
2022/10/13 07:04:57;;;;;;;27.47;15.73;;;;;;;;;;5054944;28;20170;-66
2022/10/13 07:07:23;;;;;;;25.13;15.20;;;;;;;;;;5055508;28;20259;-66
2022/10/13 07:09:49;;;;;;;26.83;15.73;;;;;;;;;;5055373;28;20300;-66
2022/10/13 07:12:15;;;;;;;28.90;15.60;;;;;;;;;;5055111;28;20684;-66
2022/10/13 07:14:41;;;;;;;23.80;15.27;;;;;;;;;;5054925;28;20190;-67
2022/10/13 07:17:07;;;;;;;25.60;14.93;;;;;;;;;;5037164;28;20190;-66
2022/10/13 07:19:33;;;;;;;23.20;15.07;;;;;;;;;;5054641;28;20178;-66
2022/10/13 07:21:59;;;;;;;21.77;14.30;;;;;;;;;;5036702;28;20209;-65
2022/10/13 07:24:25;;;;;;;21.20;14.13;;;;;;;;;;5054524;28;20205;-65
2022/10/13 07:26:51;;;;;;;21.90;14.97;;;;;;;;;;5054152;28;20170;-65
2022/10/13 07:29:18;;;;;;;19.63;14.40;;;;;;;;;;5036467;28;20236;-66
2022/10/13 07:31:44;;;;;;;28.77;15.13;;;;;;;;;;5036595;28;20224;-65
2022/10/13 07:34:10;;;;;;;23.07;15.17;;;;;;;;;;5054587;28;20182;-65
2022/10/13 07:36:39;;;;;;;23.53;15.70;;;;;;;;;;5054130;28;20252;-65
2022/10/13 07:39:05;;;;;;;23.53;14.60;;;;;;;;;;5036114;28;20190;-65
2022/10/13 07:41:31;;;;;;;24.57;16.10;;;;;;;;;;5054171;28;20689;-65
2022/10/13 07:43:57;;;;;;;21.57;15.00;;;;;;;;;;5053856;28;20198;-65
2022/10/13 07:46:24;;;;;;;27.07;15.10;;;;;;;;;;5053957;28;20690;-65
2022/10/13 07:48:51;;;;;;;30.20;15.43;;;;;;;;;;5036026;28;20179;-65
2022/10/13 07:51:17;;;;;;;26.37;15.07;;;;;;;;;;5036032;28;20241;-65
2022/10/13 07:53:45;;;;;;;22.10;14.50;;;;;;;;;;5053979;28;20725;-65
2022/10/13 07:56:11;;;;;;;21.50;14.00;;;;;;;;;;5054004;28;20170;-65
2022/10/13 07:58:38;;;;;;;27.20;15.33;;;;;;;;;;5053691;28;20185;-64
2022/10/13 08:01:05;;;;;;;25.80;15.67;;;;;;;;;;5035697;28;20232;-65
2022/10/13 08:03:31;;;;;;;24.53;14.13;;;;;;;;;;5053576;28;20194;-65
2022/10/13 08:06:01;;;;;;;21.10;14.27;;;;;;;;;;5034881;28;20185;-65
2022/10/13 08:08:27;;;;;;;25.90;14.33;;;;;;;;;;5053655;28;20643;-65
2022/10/13 08:10:53;;;;;;;28.00;14.37;;;;;;;;;;5053863;28;20182;-65
2022/10/13 08:13:19;;;;;;;19.10;12.73;;;;;;;;;;5035736;28;20273;-66
2022/10/13 08:15:45;;;;;;;19.57;13.00;;;;;;;;;;5053365;28;20182;-65
2022/10/13 08:18:12;;;;;;;20.30;14.07;;;;;;;;;;5035621;28;20277;-65
2022/10/13 08:20:40;;;;;;;15.50;12.73;;;;;;;;;;5035513;28;20186;-66
2022/10/13 08:23:05;;;;;;;20.80;13.40;;;;;;;;;;5053246;28;20256;-65
2022/10/13 08:25:36;;;;;;;19.77;12.67;;;;;;;;;;5035390;28;20182;-65
2022/10/13 08:28:02;;;;;;;16.90;13.00;;;;;;;;;;5036045;28;20223;-65
2022/10/13 08:30:28;;;;;;;21.27;14.13;;;;;;;;;;5053436;28;20254;-65
2022/10/13 08:32:54;;;;;;;23.23;14.70;;;;;;;;;;5035178;28;20202;-65
2022/10/13 08:35:20;;;;;;;21.93;13.23;;;;;;;;;;5053471;28;20185;-66
2022/10/13 08:37:46;;;;;;;22.60;13.43;;;;;;;;;;5035248;28;20190;-65
2022/10/13 08:40:16;;;;;;;20.97;12.83;;;;;;;;;;5035216;28;20185;-65
2022/10/13 08:42:43;;;;;;;19.10;13.50;;;;;;;;;;5053107;28;20208;-65
2022/10/13 08:45:15;;;;;;;22.03;13.03;;;;;;;;;;5035118;28;20185;-65
2022/10/13 08:48:00;;;;;;;19.00;12.60;;;;;;;;;;5034975;28;20178;-65
2022/10/13 08:50:28;;;;;;;25.70;14.17;;;;;;;;;;5053103;28;20631;-65
2022/10/13 08:52:56;;;;;;;21.53;12.93;;;;;;;;;;5034965;28;20211;-65
2022/10/13 08:55:42;;;;;;;18.40;13.27;;;;;;;;;;5035066;28;20205;-65
2022/10/13 08:58:17;;;;;;;27.23;13.30;;;;;;;;;;5053036;28;20184;-66
2022/10/13 09:00:43;;;;;;;23.40;13.13;;;;;;;;;;5035014;28;20630;-67
2022/10/13 09:03:26;;;;;;;17.03;12.63;;;;;;;;;;5052727;28;20198;-66
2022/10/13 09:05:57;;;;;;;20.07;13.23;;;;;;;;;;5035000;28;20550;-66
2022/10/13 09:08:26;;;;;;;21.63;13.70;;;;;;;;;;5035059;28;20193;-66
2022/10/13 09:10:52;;;;;;;17.37;13.27;;;;;;;;;;5035168;28;20171;-66
2022/10/13 09:13:19;;;;;;;22.97;12.70;;;;;;;;;;5034658;28;20767;-66
2022/10/13 09:15:47;;;;;;;18.20;12.53;;;;;;;;;;5052674;28;20171;-66
2022/10/13 09:18:13;;;;;;;26.33;12.77;;;;;;;;;;5038063;28;20193;-66
2022/10/13 09:20:40;;;;;;;20.43;12.77;;;;;;;;;;5039010;28;20269;-66
2022/10/13 09:23:15;;;;;;;18.20;11.90;;;;;;;;;;5038689;28;20206;-67
2022/10/13 09:25:43;;;;;;;20.83;11.37;;;;;;;;;;5038871;28;20170;-66
2022/10/13 09:28:13;;;;;;;21.87;12.80;;;;;;;;;;5056928;28;20183;-66
2022/10/13 09:30:41;;;;;;;22.37;11.90;;;;;;;;;;5038825;28;20590;-66
2022/10/13 09:33:07;;;;;;;20.40;11.63;;;;;;;;;;5057050;28;20198;-66
2022/10/13 09:35:33;;;;;;;17.37;12.33;;;;;;;;;;5038408;28;20253;-66
2022/10/13 09:38:09;;;;;;;20.13;12.17;;;;;;;;;;5056982;28;20177;-67
2022/10/13 09:40:35;;;;;;;20.27;12.00;;;;;;;;;;5056588;28;20507;-66
2022/10/13 09:43:03;;;;;;;23.03;11.87;;;;;;;;;;5056270;28;20211;-66
2022/10/13 09:45:29;;;;;;;18.60;11.97;;;;;;;;;;5038590;28;20224;-66
2022/10/13 09:48:02;;;;;;;17.27;11.97;;;;;;;;;;5056292;28;20182;-66
2022/10/13 09:50:29;;;;;;;24.23;12.10;;;;;;;;;;5038364;28;20241;-64
2022/10/13 09:53:15;;;;;;;17.77;11.80;;;;;;;;;;5038512;28;20216;-66
2022/10/13 09:55:41;;;;;;;18.70;11.63;;;;;;;;;;5038617;28;20190;-66
2022/10/13 09:58:26;;;;;;;19.63;12.60;;;;;;;;;;5056674;28;20193;-67
2022/10/13 10:00:52;;;;;;;15.37;11.50;;;;;;;;;;5060490;28;20178;-66
2022/10/13 10:03:21;;;;;;;17.00;11.63;;;;;;;;;;5056071;28;20696;-66
2022/10/13 10:05:48;;;;;;;22.07;11.17;;;;;;;;;;5037889;28;20179;-67
2022/10/13 10:08:35;;;;;;;17.03;11.23;;;;;;;;;;5055881;28;20246;-66
2022/10/13 10:11:02;;;;;;;20.80;11.83;;;;;;;;;;5055395;28;20238;-67
2022/10/13 10:13:28;;;;;;;21.07;11.83;;;;;;;;;;5037773;28;20194;-67
2022/10/13 10:15:58;;;;;;;17.30;11.17;;;;;;;;;;5037636;28;20182;-66
2022/10/13 10:18:30;;;;;;;19.53;10.80;;;;;;;;;;5037591;28;20179;-66
2022/10/13 10:21:03;;;;;;;16.47;11.17;;;;;;;;;;5055819;28;20325;-66
2022/10/13 10:23:49;;;;;;;15.43;10.83;;;;;;;;;;5055594;28;20666;-66
2022/10/13 10:26:15;;;;;;;16.63;11.20;;;;;;;;;;5055279;28;20649;-67
2022/10/13 10:28:41;;;;;;;19.37;11.47;;;;;;;;;;5054549;28;20182;-66
2022/10/13 10:31:16;;;;;;;18.83;10.80;;;;;;;;;;5037455;28;20209;-65
2022/10/13 10:33:53;;;;;;;19.40;10.63;;;;;;;;;;5055241;28;20174;-66
2022/10/13 10:36:21;;;;;;;13.67;10.77;;;;;;;;;;5037472;28;20174;-67
2022/10/13 10:38:51;;;;;;;14.07;10.37;;;;;;;;;;5037266;28;20616;-66
2022/10/13 10:41:40;;;;;;;22.17;11.47;;;;;;;;;;5037159;28;20277;-66
2022/10/13 10:44:16;;;;;;;14.43;9.70;;;;;;;;;;5037278;28;20219;-66
2022/10/13 10:46:46;;;;;;;19.10;9.77;;;;;;;;;;5055118;28;20289;-66
2022/10/13 10:49:15;;;;;;;19.83;10.17;;;;;;;;;;5037197;28;20187;-67
2022/10/13 10:51:41;;;;;;;15.80;9.23;;;;;;;;;;5055154;28;20285;-66
2022/10/13 10:54:07;;;;;;;15.90;8.70;;;;;;;;;;5037204;28;20186;-67
2022/10/13 10:56:33;;;;;;;14.20;9.67;;;;;;;;;;5055291;28;20185;-66
2022/10/13 10:59:04;;;;;;;16.90;9.23;;;;;;;;;;5055153;28;20182;-66
2022/10/13 11:01:30;;;;;;;14.30;9.20;;;;;;;;;;5055399;28;20209;-67
2022/10/13 11:04:27;;;;;;;15.93;9.30;;;;;;;;;;5054779;28;20202;-66
2022/10/13 11:06:53;;;;;;;14.10;9.20;;;;;;;;;;5036968;28;20261;-67
2022/10/13 11:09:38;;;;;;;20.73;9.13;;;;;;;;;;5037103;28;20309;-67
2022/10/13 11:12:21;;;;;;;13.10;8.50;;;;;;;;;;5054846;28;20221;-67
2022/10/13 11:14:53;;;;;;;15.27;9.20;;;;;;;;;;5054864;28;20166;-67
2022/10/13 11:17:29;;;;;;;11.27;7.80;;;;;;;;;;5036741;28;20552;-67
2022/10/13 11:19:56;;;;;;;10.67;7.83;;;;;;;;;;5036699;28;20236;-66
2022/10/13 11:22:23;;;;;;;12.03;8.60;;;;;;;;;;5054675;28;20548;-67
2022/10/13 11:24:54;;;;;;;14.83;8.17;;;;;;;;;;5055125;28;20210;-66
2022/10/13 11:27:33;;;;;;;13.43;8.80;;;;;;;;;;5055004;28;20171;-67
2022/10/13 11:29:59;;;;;;;17.40;8.57;;;;;;;;;;5036680;28;20169;-67
2022/10/13 11:35:09;;;;;;;14.07;8.00;;;;;;;;;;5054563;28;20166;-67
2022/10/13 11:37:35;;;;;;;13.80;8.20;;;;;;;;;;5055160;28;20201;-66
2022/10/13 11:40:15;;;;;;;11.10;6.87;;;;;;;;;;5054391;28;20638;-66
2022/10/13 11:43:07;;;;;;;11.90;7.37;;;;;;;;;;5054320;28;20206;-66
2022/10/13 11:45:42;;;;;;;13.37;7.20;;;;;;;;;;5016764;28;20199;-66
2022/10/13 11:48:14;;;;;;;11.50;8.00;;;;;;;;;;5054036;28;20214;-67
2022/10/13 11:50:47;;;;;;;11.17;6.67;;;;;;;;;;5054004;28;20262;-66
2022/10/13 11:53:16;;;;;;;13.73;7.43;;;;;;;;;;5035923;28;20730;-66
2022/10/13 11:55:42;;;;;;;12.23;7.03;;;;;;;;;;5054421;28;20179;-67
2022/10/13 11:58:09;;;;;;;12.90;6.13;;;;;;;;;;5053860;28;20254;-66
2022/10/13 12:00:35;;;;;;;8.77;6.73;;;;;;;;;;5053922;28;20183;-67
2022/10/13 12:03:01;;;;;;;14.07;6.47;;;;;;;;;;5035767;28;20206;-67
2022/10/13 12:05:30;;;;;;;11.87;6.40;;;;;;;;;;5035775;28;20532;-67
2022/10/13 12:07:58;;;;;;;9.27;6.33;;;;;;;;;;5053675;28;20571;-66
2022/10/13 12:10:29;;;;;;;12.30;6.57;;;;;;;;;;5035656;28;20198;-66
2022/10/13 12:12:55;;;;;;;11.37;5.90;;;;;;;;;;5035516;28;20713;-67
2022/10/13 12:15:29;;;;;;;15.30;6.47;;;;;;;;;;5053604;28;20643;-67
2022/10/13 12:17:55;;;;;;;8.70;6.40;;;;;;;;;;5053653;28;20212;-66
2022/10/13 12:20:26;;;;;;;9.73;5.97;;;;;;;;;;5053390;28;20240;-67
2022/10/13 12:22:53;;;;;;;10.63;6.30;;;;;;;;;;5053457;28;20202;-66
2022/10/13 12:25:20;;;;;;;7.53;5.77;;;;;;;;;;5053586;28;20179;-67
2022/10/13 12:27:56;;;;;;;10.30;5.93;;;;;;;;;;5054223;28;20235;-67
2022/10/13 12:30:28;;;;;;;14.57;6.20;;;;;;;;;;5053874;28;20162;-66
2022/10/13 12:32:55;;;;;;;10.53;6.43;;;;;;;;;;5036053;28;20203;-66
2022/10/13 12:35:26;;;;;;;9.80;6.30;;;;;;;;;;5035597;28;20252;-67
2022/10/13 12:37:53;;;;;;;9.83;6.67;;;;;;;;;;5035816;28;20716;-67
2022/10/13 12:40:19;;;;;;;8.77;6.77;;;;;;;;;;5053754;28;20178;-68
2022/10/13 12:42:45;;;;;;;9.03;6.60;;;;;;;;;;5053077;28;20236;-67
2022/10/13 12:45:22;;;;;;;9.93;6.63;;;;;;;;;;5035437;28;20185;-67
2022/10/13 12:47:50;;;;;;;14.10;7.53;;;;;;;;;;5053265;28;20248;-66
2022/10/13 12:50:19;;;;;;;10.50;6.80;;;;;;;;;;5035554;28;20205;-68
2022/10/13 12:52:45;;;;;;;11.00;7.00;;;;;;;;;;5040456;28;20244;-66
2022/10/13 12:55:13;;;;;;;18.00;7.70;;;;;;;;;;5060343;28;20174;-66
2022/10/13 12:57:40;;;;;;;12.73;6.87;;;;;;;;;;5060006;28;20227;-67
2022/10/13 13:00:19;;;;;;;11.00;6.80;;;;;;;;;;5041860;28;20193;-67
2022/10/13 13:02:58;;;;;;;11.93;7.20;;;;;;;;;;5041683;28;20207;-67
2022/10/13 13:05:44;;;;;;;13.03;7.23;;;;;;;;;;5042203;28;20528;-68
2022/10/13 13:08:19;;;;;;;12.83;6.90;;;;;;;;;;5042078;28;20711;-67
2022/10/13 13:10:59;;;;;;;16.77;7.03;;;;;;;;;;5041910;28;20264;-67
2022/10/13 13:13:25;;;;;;;15.07;7.50;;;;;;;;;;5059493;28;20213;-67
2022/10/13 13:15:51;;;;;;;11.53;7.07;;;;;;;;;;5060244;28;20210;-67
2022/10/13 13:18:30;;;;;;;9.87;6.90;;;;;;;;;;5059687;28;20553;-66
2022/10/13 13:20:56;;;;;;;10.17;6.50;;;;;;;;;;5059793;28;20163;-67
2022/10/13 13:23:22;;;;;;;11.57;6.97;;;;;;;;;;5059548;28;20339;-66
2022/10/13 13:26:01;;;;;;;13.07;6.83;;;;;;;;;;5041740;28;20186;-67
2022/10/13 13:28:29;;;;;;;14.80;7.43;;;;;;;;;;5059886;28;20253;-67
2022/10/13 13:30:55;;;;;;;11.53;7.80;;;;;;;;;;5059487;28;20182;-66
2022/10/13 13:33:20;;;;;;;9.73;6.57;;;;;;;;;;5059317;28;20194;-66
2022/10/13 13:35:47;;;;;;;11.57;6.73;;;;;;;;;;5041537;28;20186;-66
2022/10/13 13:38:13;;;;;;;12.70;7.80;;;;;;;;;;5041307;28;20193;-66
2022/10/13 13:40:39;;;;;;;15.03;7.67;;;;;;;;;;5059784;28;20186;-65
2022/10/13 13:43:05;;;;;;;16.63;8.37;;;;;;;;;;5059312;28;20214;-65
2022/10/13 13:45:33;;;;;;;11.90;8.00;;;;;;;;;;5059301;28;20175;-65
2022/10/13 13:47:59;;;;;;;12.43;8.03;;;;;;;;;;5059147;28;20185;-65
2022/10/13 13:50:27;;;;;;;11.73;7.20;;;;;;;;;;5041226;28;20178;-65
2022/10/13 13:52:53;;;;;;;9.80;8.03;;;;;;;;;;5041178;28;20678;-65
2022/10/13 13:55:19;;;;;;;12.73;7.70;;;;;;;;;;5059194;28;20174;-65
2022/10/13 13:57:45;;;;;;;14.23;8.17;;;;;;;;;;5059438;28;20230;-66
2022/10/13 14:00:12;;;;;;;15.37;7.93;;;;;;;;;;5041102;28;20190;-65
2022/10/13 14:02:38;;;;;;;11.23;7.80;;;;;;;;;;5040572;28;20206;-66
2022/10/13 14:05:04;;;;;;;16.10;8.77;;;;;;;;;;5056004;28;20179;-67
2022/10/13 14:07:31;;;;;;;11.67;8.43;;;;;;;;;;5038057;28;20178;-67
2022/10/13 14:09:56;;;;;;;12.73;8.63;;;;;;;;;;5038003;28;20651;-67
2022/10/13 14:12:22;;;;;;;14.87;8.90;;;;;;;;;;5055899;28;20214;-67
2022/10/13 14:14:48;;;;;;;16.73;8.80;;;;;;;;;;5055901;28;20186;-66
2022/10/13 14:17:14;;;;;;;14.80;8.97;;;;;;;;;;5055949;28;20179;-67
2022/10/13 14:19:41;;;;;;;11.90;8.97;;;;;;;;;;5056070;28;20189;-67
2022/10/13 14:22:07;;;;;;;14.27;9.77;;;;;;;;;;5037677;28;20206;-64
2022/10/13 14:24:33;;;;;;;14.57;10.20;;;;;;;;;;5055587;28;20208;-67
2022/10/13 14:26:59;;;;;;;13.93;9.37;;;;;;;;;;5055847;28;20196;-67
2022/10/13 14:29:25;;;;;;;16.03;10.33;;;;;;;;;;5055653;28;20224;-67
2022/10/13 14:31:51;;;;;;;15.10;10.70;;;;;;;;;;5055431;28;20293;-67